Time;durP1;ratioP1;P1;durP2;ratioP2;P2;SDS_P1;SDS_P2;PMS_P1;PMS_P2;Temp;Humidity;BMP_temperature;BMP_pressure;BME280_temperature;BME280_humidity;BME280_pressure;Samples;Min_cycle;Max_cycle;Signal;HPM_P1;HPM_P2
2023/06/12 00:01:02;;;;;;;9.70;9.40;;;19.10;99.90;;;;;;5046305;28;20266;-84
2023/06/12 00:03:49;;;;;;;9.70;9.40;;;19.10;99.90;;;;;;5057164;28;20231;-81
2023/06/12 00:06:18;;;;;;;9.77;9.48;;;19.00;99.90;;;;;;5060886;28;20200;-83
2023/06/12 00:08:47;;;;;;;9.90;9.60;;;18.90;99.90;;;;;;5059624;28;20211;-83
2023/06/12 00:11:16;;;;;;;9.80;9.50;;;18.80;99.90;;;;;;5055300;28;20228;-84
2023/06/12 00:13:47;;;;;;;9.70;9.40;;;18.70;99.90;;;;;;5048861;28;20239;-84
2023/06/12 00:16:17;;;;;;;9.85;9.55;;;18.60;99.90;;;;;;5042190;28;20289;-84
2023/06/12 00:18:55;;;;;;;9.73;9.43;;;18.50;99.90;;;;;;5042081;28;20242;-83
2023/06/12 00:21:24;;;;;;;9.88;9.57;;;18.30;99.90;;;;;;5042170;28;20234;-84
2023/06/12 00:23:54;;;;;;;9.80;9.50;;;18.30;99.90;;;;;;5041978;28;20238;-84
2023/06/12 00:26:23;;;;;;;10.15;9.85;;;18.20;99.90;;;;;;5041687;28;20278;-84
2023/06/12 00:28:52;;;;;;;10.00;9.70;;;18.10;99.90;;;;;;5042120;28;20235;-84
2023/06/12 00:31:23;;;;;;;9.90;9.60;;;18.00;99.90;;;;;;5042078;28;20716;-84
2023/06/12 00:36:57;;;;;;;9.85;9.55;;;17.90;99.90;;;;;;5041225;28;20243;-84
2023/06/12 00:39:26;;;;;;;9.95;9.65;;;17.80;99.90;;;;;;5042379;28;20263;-83
2023/06/12 00:41:56;;;;;;;9.90;9.60;;;17.70;99.90;;;;;;5043629;28;20238;-84
2023/06/12 00:44:24;;;;;;;9.98;9.68;;;17.60;99.90;;;;;;5042149;28;20290;-84
2023/06/12 00:46:56;;;;;;;9.90;9.60;;;17.60;99.90;;;;;;5041633;28;20231;-84
2023/06/12 00:49:42;;;;;;;9.88;9.57;;;17.60;99.90;;;;;;5041978;28;20244;-84
2023/06/12 00:52:12;;;;;;;9.95;9.65;;;17.50;99.90;;;;;;5042842;28;20305;-84
2023/06/12 00:54:45;;;;;;;9.95;9.65;;;17.50;99.90;;;;;;5041733;28;20224;-84
2023/06/12 00:59:56;;;;;;;9.77;9.48;;;17.40;99.90;;;;;;5040787;28;21162;-84
2023/06/12 01:02:26;;;;;;;9.80;9.50;;;17.40;99.90;;;;;;5041232;28;20232;-84
2023/06/12 01:05:22;;;;;;;9.60;9.30;;;17.30;99.90;;;;;;5042006;28;20318;-84
2023/06/12 01:08:00;;;;;;;9.90;9.60;;;17.30;99.90;;;;;;5041320;28;20227;-84
2023/06/12 01:10:40;;;;;;;9.80;9.50;;;17.20;99.90;;;;;;5040954;28;20269;-84
2023/06/12 01:13:10;;;;;;;9.80;9.50;;;17.20;99.90;;;;;;5040974;28;20291;-84
2023/06/12 01:15:37;;;;;;;9.80;9.50;;;17.10;99.90;;;;;;5041306;28;20234;-84
2023/06/12 01:18:06;;;;;;;9.60;9.30;;;17.00;99.90;;;;;;5041307;28;20216;-83
2023/06/12 01:20:45;;;;;;;9.70;9.40;;;16.90;99.90;;;;;;5041001;28;20242;-85
2023/06/12 01:23:32;;;;;;;9.90;9.60;;;16.80;99.90;;;;;;5041924;28;20258;-83
2023/06/12 01:26:25;;;;;;;9.93;9.63;;;16.70;99.90;;;;;;5042101;28;20235;-84
2023/06/12 01:29:52;;;;;;;9.70;9.40;;;16.70;99.90;;;;;;5041379;28;20234;-83
2023/06/12 01:32:24;;;;;;;10.00;9.70;;;16.60;99.90;;;;;;5041246;28;20242;-83
2023/06/12 01:35:00;;;;;;;9.80;9.50;;;16.60;99.90;;;;;;5041085;28;20251;-84
2023/06/12 01:37:36;;;;;;;9.65;9.35;;;16.60;99.90;;;;;;5041215;28;20282;-84
2023/06/12 01:40:13;;;;;;;9.52;9.23;;;16.60;99.90;;;;;;5040879;28;20230;-84
2023/06/12 01:42:44;;;;;;;9.57;9.27;;;16.50;99.90;;;;;;5040433;28;20250;-84
2023/06/12 01:45:12;;;;;;;9.60;9.30;;;16.50;99.90;;;;;;5040630;28;20269;-83
2023/06/12 01:50:29;;;;;;;10.00;9.70;;;16.40;99.90;;;;;;5039137;28;20239;-84
2023/06/12 01:52:58;;;;;;;10.00;9.70;;;16.40;99.90;;;;;;5040674;28;20306;-84
2023/06/12 01:55:29;;;;;;;9.90;9.60;;;16.30;99.90;;;;;;5041092;28;20289;-84
2023/06/12 01:57:58;;;;;;;10.00;9.70;;;16.20;99.90;;;;;;5040324;28;20246;-84
2023/06/12 02:00:27;;;;;;;10.00;9.70;;;16.20;99.90;;;;;;5039998;28;20247;-84
2023/06/12 02:03:01;;;;;;;10.20;9.90;;;16.10;99.90;;;;;;5040094;28;20235;-84
2023/06/12 02:08:13;;;;;;;10.07;9.77;;;16.00;99.90;;;;;;5020157;28;20228;-84
2023/06/12 02:10:42;;;;;;;10.50;10.20;;;15.90;99.90;;;;;;5024156;28;20311;-84
2023/06/12 02:13:11;;;;;;;10.20;9.90;;;15.90;99.90;;;;;;5043155;28;20326;-84
2023/06/12 02:15:45;;;;;;;10.30;10.00;;;15.90;99.90;;;;;;5045187;28;20270;-84
2023/06/12 02:20:59;;;;;;;10.30;10.00;;;15.90;99.90;;;;;;5041999;28;20215;-84
2023/06/12 02:23:28;;;;;;;10.60;10.30;;;15.90;99.90;;;;;;5043711;28;20235;-84
2023/06/12 02:25:58;;;;;;;10.35;10.05;;;15.90;99.90;;;;;;5044098;28;20267;-84
2023/06/12 02:28:28;;;;;;;10.90;10.60;;;15.90;99.90;;;;;;5044142;28;20231;-84
2023/06/12 02:30:57;;;;;;;10.50;10.20;;;15.80;99.90;;;;;;5044342;28;20302;-83
2023/06/12 02:36:13;;;;;;;10.30;10.00;;;15.70;99.90;;;;;;5045620;28;20230;-84
2023/06/12 02:38:43;;;;;;;10.20;9.90;;;15.70;99.90;;;;;;5061166;28;20212;-82
2023/06/12 02:43:59;;;;;;;10.80;10.50;;;15.70;99.90;;;;;;5038518;28;20247;-83
2023/06/12 02:46:29;;;;;;;11.00;10.70;;;15.60;99.90;;;;;;5028788;28;20275;-84
2023/06/12 02:51:45;;;;;;;10.90;10.60;;;15.50;99.90;;;;;;5037015;28;20298;-84
2023/06/12 02:54:15;;;;;;;10.95;10.65;;;15.50;99.90;;;;;;5043991;28;20236;-84
2023/06/12 02:56:45;;;;;;;10.80;10.50;;;15.40;99.90;;;;;;5051186;28;20291;-83
2023/06/12 03:02:01;;;;;;;11.50;11.10;;;15.40;99.90;;;;;;5060842;28;20220;-82
2023/06/12 03:07:18;;;;;;;11.18;10.88;;;15.40;99.90;;;;;;5049002;28;20254;-84
2023/06/12 03:09:47;;;;;;;11.02;10.73;;;15.40;99.90;;;;;;5046324;28;20239;-84
2023/06/12 03:12:16;;;;;;;11.10;10.80;;;15.30;99.90;;;;;;5045051;28;20231;-84
2023/06/12 03:14:46;;;;;;;11.10;10.80;;;15.30;99.90;;;;;;5044380;28;20285;-84
2023/06/12 03:17:15;;;;;;;10.90;10.60;;;15.30;99.90;;;;;;5044127;28;20318;-84
2023/06/12 03:19:47;;;;;;;10.88;10.57;;;15.30;99.90;;;;;;5042055;28;20246;-84
2023/06/12 03:22:15;;;;;;;10.80;10.50;;;15.30;99.90;;;;;;5043014;28;20219;-83
2023/06/12 03:24:43;;;;;;;10.80;10.50;;;15.40;99.90;;;;;;5043405;28;20263;-84
2023/06/12 03:27:14;;;;;;;11.00;10.70;;;15.40;99.90;;;;;;5043696;28;20318;-84
2023/06/12 03:29:42;;;;;;;10.70;10.40;;;15.40;99.90;;;;;;5042712;28;20376;-84
2023/06/12 03:32:14;;;;;;;10.73;10.43;;;15.50;99.90;;;;;;5043079;28;20223;-83
2023/06/12 03:34:43;;;;;;;10.68;10.38;;;15.50;99.90;;;;;;5043094;28;20247;-84
2023/06/12 03:37:13;;;;;;;10.60;10.30;;;15.60;99.90;;;;;;5043093;28;20258;-84
2023/06/12 03:39:41;;;;;;;10.55;10.25;;;15.60;99.90;;;;;;5042390;28;20333;-84
2023/06/12 03:42:11;;;;;;;10.52;10.23;;;15.60;99.90;;;;;;5041981;28;20382;-84
2023/06/12 03:44:39;;;;;;;10.30;10.00;;;15.70;99.90;;;;;;5043241;28;20322;-84
2023/06/12 03:47:08;;;;;;;10.40;10.10;;;15.70;99.90;;;;;;5043023;28;20258;-84
2023/06/12 03:49:37;;;;;;;10.48;10.18;;;15.80;99.90;;;;;;5042089;28;20297;-84
2023/06/12 03:52:07;;;;;;;10.43;10.13;;;15.90;99.90;;;;;;5042670;28;20235;-84
2023/06/12 03:54:39;;;;;;;10.80;10.50;;;15.90;99.90;;;;;;5042712;28;20300;-84
2023/06/12 03:57:07;;;;;;;10.55;10.25;;;16.00;99.90;;;;;;5042397;28;20350;-84
2023/06/12 03:59:35;;;;;;;10.40;10.10;;;16.10;99.90;;;;;;5042147;28;20286;-84
2023/06/12 04:02:04;;;;;;;10.50;10.20;;;16.10;99.90;;;;;;5042164;28;20262;-84
2023/06/12 04:04:34;;;;;;;10.63;10.32;;;16.10;99.90;;;;;;5042272;28;20259;-84
2023/06/12 04:07:06;;;;;;;10.57;10.27;;;16.10;99.90;;;;;;5043095;28;20242;-84
2023/06/12 04:09:34;;;;;;;10.80;10.50;;;16.00;99.90;;;;;;5041617;28;20282;-84
2023/06/12 04:12:12;;;;;;;10.98;10.68;;;16.00;99.90;;;;;;5042317;28;20223;-84
2023/06/12 04:14:40;;;;;;;10.77;10.48;;;16.10;99.90;;;;;;5042796;28;20262;-84
2023/06/12 04:17:12;;;;;;;10.63;10.32;;;16.10;99.90;;;;;;5042898;28;20318;-84
2023/06/12 04:19:43;;;;;;;10.73;10.43;;;16.20;99.90;;;;;;5042196;28;20302;-84
2023/06/12 04:22:12;;;;;;;10.68;10.38;;;16.20;99.90;;;;;;5043398;28;20250;-84
2023/06/12 04:24:42;;;;;;;10.60;10.30;;;16.20;99.90;;;;;;5042572;28;20231;-84
2023/06/12 04:27:13;;;;;;;10.70;10.40;;;16.20;99.90;;;;;;5043287;28;20235;-84
2023/06/12 04:29:42;;;;;;;10.40;10.10;;;16.30;99.90;;;;;;5041510;28;20235;-84
2023/06/12 04:32:13;;;;;;;10.30;10.00;;;16.40;99.90;;;;;;5041328;28;20243;-84
2023/06/12 04:34:43;;;;;;;10.57;10.27;;;16.50;99.90;;;;;;5042008;28;20236;-84
2023/06/12 04:37:19;;;;;;;10.52;10.23;;;16.50;99.90;;;;;;5041983;28;20235;-84
2023/06/12 04:42:46;;;;;;;10.60;10.30;;;16.70;99.90;;;;;;5041536;28;20234;-84
2023/06/12 04:45:14;;;;;;;10.20;9.90;;;16.80;99.90;;;;;;5041925;28;20227;-84
2023/06/12 04:47:42;;;;;;;10.30;10.00;;;16.80;99.90;;;;;;5041633;28;20247;-84
2023/06/12 04:50:12;;;;;;;10.10;9.80;;;16.90;99.90;;;;;;5041446;28;20718;-84
2023/06/12 04:52:40;;;;;;;9.85;9.55;;;17.00;99.90;;;;;;5041766;28;20286;-84
2023/06/12 04:55:09;;;;;;;10.18;9.88;;;17.00;99.90;;;;;;5041502;28;20292;-84
2023/06/12 04:57:47;;;;;;;10.00;9.70;;;17.10;99.90;;;;;;5041667;28;20260;-85
2023/06/12 05:00:16;;;;;;;9.88;9.57;;;17.20;99.90;;;;;;5041485;28;20239;-84
2023/06/12 05:02:46;;;;;;;10.40;10.10;;;17.30;99.90;;;;;;5041379;28;20247;-85
2023/06/12 05:05:16;;;;;;;10.38;10.07;;;17.40;99.90;;;;;;5041744;28;20302;-84
2023/06/12 05:07:46;;;;;;;10.10;9.80;;;17.40;99.90;;;;;;5042229;28;20254;-85
2023/06/12 05:10:14;;;;;;;10.30;10.00;;;17.40;99.90;;;;;;5048543;28;20239;-82
2023/06/12 05:12:56;;;;;;;10.40;10.10;;;17.50;99.90;;;;;;5060206;28;20230;-83
2023/06/12 05:18:09;;;;;;;10.23;9.93;;;17.60;99.90;;;;;;5052577;28;20235;-84
2023/06/12 05:20:38;;;;;;;9.70;9.40;;;17.70;99.90;;;;;;5038303;28;20266;-85
2023/06/12 05:23:11;;;;;;;9.73;9.43;;;17.80;99.90;;;;;;5046843;28;20321;-83
2023/06/12 05:25:38;;;;;;;9.70;9.40;;;18.00;99.90;;;;;;5058368;28;20223;-84
2023/06/12 05:28:16;;;;;;;10.48;10.18;;;18.00;99.90;;;;;;5057811;28;20235;-84
2023/06/12 05:30:47;;;;;;;10.20;9.90;;;18.00;99.90;;;;;;5056629;28;20246;-84
2023/06/12 05:33:15;;;;;;;10.20;9.90;;;18.10;99.90;;;;;;5047426;28;20219;-84
2023/06/12 05:35:44;;;;;;;10.27;9.98;;;18.20;99.90;;;;;;5043270;28;20238;-85
2023/06/12 05:38:13;;;;;;;10.30;10.00;;;18.30;99.90;;;;;;5040825;28;20251;-85
2023/06/12 05:40:42;;;;;;;10.38;10.07;;;18.40;99.90;;;;;;5041188;28;20238;-85
2023/06/12 05:43:26;;;;;;;9.80;9.50;;;18.40;99.90;;;;;;5041224;28;20315;-85
2023/06/12 05:48:59;;;;;;;9.98;9.68;;;18.70;99.90;;;;;;5044300;28;20286;-88
2023/06/12 05:51:27;;;;;;;9.95;9.65;;;18.80;99.90;;;;;;5077225;22;20242;-85
2023/06/12 05:53:55;;;;;;;9.60;9.30;;;18.90;99.90;;;;;;5038138;28;20379;-85
2023/06/12 05:56:33;;;;;;;9.90;9.60;;;19.10;99.90;;;;;;5025823;28;20227;-85
2023/06/12 05:59:10;;;;;;;9.90;9.60;;;19.20;99.90;;;;;;5025758;28;20232;-89
2023/06/12 06:01:40;;;;;;;10.10;9.80;;;19.30;99.90;;;;;;5025835;28;20287;-89
2023/06/12 06:04:11;;;;;;;10.30;10.00;;;19.40;99.90;;;;;;5028923;28;20228;-89
2023/06/12 06:06:44;;;;;;;10.50;10.20;;;19.50;99.90;;;;;;5030300;28;20224;-89
2023/06/12 06:09:19;;;;;;;10.50;10.20;;;19.60;99.90;;;;;;5028119;28;20228;-89
2023/06/12 06:17:26;;;;;;;10.05;9.75;;;19.80;99.90;;;;;;5050992;28;20262;-90
2023/06/12 06:20:17;;;;;;;9.75;9.45;;;19.80;99.90;;;;;;5052314;28;20286;-90
2023/06/12 06:23:15;;;;;;;9.82;9.52;;;19.80;99.90;;;;;;5056575;28;20239;-88
2023/06/12 06:25:52;;;;;;;9.82;9.52;;;19.90;99.90;;;;;;5058073;28;20243;-88
2023/06/12 06:28:23;;;;;;;9.80;9.50;;;19.80;99.90;;;;;;5060721;28;20243;-89
2023/06/12 06:31:01;;;;;;;9.70;9.40;;;19.90;99.90;;;;;;5059914;28;20224;-89
2023/06/12 06:33:30;;;;;;;10.00;9.70;;;20.00;99.90;;;;;;5053468;28;20224;-88
2023/06/12 06:39:04;;;;;;;10.15;9.85;;;20.20;99.90;;;;;;5044504;28;20227;-88
2023/06/12 06:41:47;;;;;;;10.20;9.90;;;20.40;99.90;;;;;;5045525;28;20295;-87
2023/06/12 06:44:20;;;;;;;10.27;9.98;;;20.50;99.90;;;;;;5045901;28;20216;-89
2023/06/12 06:47:02;;;;;;;10.13;9.82;;;20.60;99.90;;;;;;5044946;28;20222;-89
2023/06/12 06:50:03;;;;;;;10.80;10.50;;;20.70;99.90;;;;;;5047943;28;20381;-90
2023/06/12 06:53:12;;;;;;;;;;;;;;;;;;;;;
2023/06/12 07:21:43;;;;;;;9.88;9.57;;;21.60;99.90;;;;;;5120824;28;20508;-87
2023/06/12 07:24:17;;;;;;;9.70;9.40;;;22.10;99.90;;;;;;5099610;28;20312;-87
2023/06/12 07:26:48;;;;;;;9.90;9.60;;;22.10;99.90;;;;;;5097293;28;20282;-88
2023/06/12 07:29:19;;;;;;;10.07;9.77;;;22.10;99.90;;;;;;5099023;28;20225;-88
2023/06/12 07:31:59;;;;;;;10.10;9.80;;;22.30;99.90;;;;;;5099605;28;20248;-87
2023/06/12 07:34:34;;;;;;;10.35;10.05;;;22.20;99.90;;;;;;5099584;28;20225;-87
2023/06/12 07:39:53;;;;;;;10.57;10.27;;;22.30;99.90;;;;;;5103698;28;20198;-88
2023/06/12 07:42:42;;;;;;;;;;;;;;;;;;;;;
2023/06/12 07:45:17;;;;;;;10.40;10.10;;;22.50;99.90;;;;;;5087445;28;21056;-87
2023/06/12 07:48:05;;;;;;;;;;;;;;;;;;;;;
2023/06/12 07:53:56;;;;;;;10.50;10.20;;;22.80;99.90;;;;;;5088064;28;20297;-88
2023/06/12 07:56:35;;;;;;;10.60;10.30;;;22.70;99.90;;;;;;5094300;28;20238;-87
2023/06/12 07:59:20;;;;;;;9.73;9.43;;;22.60;99.90;;;;;;5086708;28;20236;-88
2023/06/12 08:02:12;;;;;;;9.88;9.57;;;22.50;99.90;;;;;;5083539;28;20261;-88
2023/06/12 08:07:40;;;;;;;10.50;10.20;;;22.50;99.90;;;;;;5098234;28;20229;-87
2023/06/12 08:10:53;;;;;;;10.40;10.10;;;22.60;99.90;;;;;;5089404;28;20312;-88
2023/06/12 08:13:43;;;;;;;10.27;9.98;;;22.80;99.90;;;;;;5098095;28;20253;-87
2023/06/12 08:23:34;;;;;;;10.50;10.20;;;23.50;99.90;;;;;;4996248;28;20273;-87
2023/06/12 08:26:13;;;;;;;10.57;10.27;;;23.80;99.90;;;;;;5084693;28;20301;-88
2023/06/12 08:28:40;;;;;;;10.65;10.35;;;23.90;99.90;;;;;;5079301;28;20244;-87
2023/06/12 08:31:11;;;;;;;10.60;10.30;;;23.90;99.90;;;;;;5068130;28;20242;-88
2023/06/12 08:33:39;;;;;;;10.50;10.20;;;23.90;99.90;;;;;;5077095;28;20236;-88
2023/06/12 08:36:10;;;;;;;10.10;9.80;;;23.90;99.90;;;;;;5079489;28;20235;-88
2023/06/12 08:38:50;;;;;;;9.77;9.48;;;23.80;99.90;;;;;;5083433;28;20299;-86
2023/06/12 08:44:15;;;;;;;10.10;9.80;;;23.70;99.90;;;;;;5101599;28;20222;-88
2023/06/12 08:46:43;;;;;;;9.88;9.57;;;23.90;99.90;;;;;;5091836;28;20234;-88
2023/06/12 08:49:15;;;;;;;10.25;9.95;;;24.00;99.90;;;;;;5086541;28;20241;-88
2023/06/12 08:51:43;;;;;;;10.50;10.20;;;24.30;99.90;;;;;;5086295;28;20242;-88
2023/06/12 08:54:20;;;;;;;10.80;10.50;;;24.50;99.90;;;;;;5085359;28;20253;-88
2023/06/12 08:57:15;;;;;;;10.70;10.40;;;24.70;99.90;;;;;;5084966;28;20226;-88
2023/06/12 08:59:45;;;;;;;10.80;10.50;;;24.80;99.90;;;;;;5083468;28;20234;-88
2023/06/12 09:02:16;;;;;;;10.80;10.50;;;25.00;99.90;;;;;;5085008;28;20233;-87
2023/06/12 09:04:52;;;;;;;10.65;10.35;;;25.00;99.90;;;;;;5092856;28;20253;-87
2023/06/12 09:07:31;;;;;;;10.70;10.40;;;25.20;99.90;;;;;;5098537;28;20249;-88
2023/06/12 09:10:09;;;;;;;10.85;10.55;;;25.30;99.90;;;;;;5088164;28;20233;-88
2023/06/12 09:12:47;;;;;;;10.95;10.65;;;25.40;99.90;;;;;;5090194;28;20226;-88
2023/06/12 09:18:02;;;;;;;11.00;10.70;;;25.60;99.90;;;;;;5084658;28;20197;-88
2023/06/12 09:20:33;;;;;;;10.85;10.55;;;25.70;99.90;;;;;;5084551;28;20238;-88
2023/06/12 09:23:02;;;;;;;10.63;10.32;;;25.60;99.90;;;;;;5085348;28;20234;-88
2023/06/12 09:25:41;;;;;;;11.05;10.75;;;25.60;99.90;;;;;;5084881;28;20251;-88
2023/06/12 09:28:12;;;;;;;10.85;10.55;;;25.60;99.90;;;;;;5084957;28;20236;-88
2023/06/12 09:30:40;;;;;;;10.57;10.27;;;25.60;99.90;;;;;;5083986;28;20233;-88
2023/06/12 09:33:10;;;;;;;10.40;10.10;;;25.70;99.90;;;;;;5082893;28;20230;-88
2023/06/12 09:35:57;;;;;;;10.23;9.93;;;25.80;99.90;;;;;;5084537;28;20284;-88
2023/06/12 09:38:33;;;;;;;10.60;10.30;;;25.90;99.90;;;;;;5084926;28;20225;-87
2023/06/12 09:41:04;;;;;;;10.45;10.15;;;26.10;99.90;;;;;;5084078;28;20229;-88
2023/06/12 09:43:41;;;;;;;10.73;10.43;;;26.30;99.90;;;;;;5084547;28;20238;-87
2023/06/12 09:46:11;;;;;;;10.55;10.25;;;26.40;99.90;;;;;;5084151;28;20233;-88
2023/06/12 09:48:40;;;;;;;10.60;10.30;;;26.50;99.90;;;;;;5084252;28;20210;-87
2023/06/12 09:51:11;;;;;;;10.80;10.50;;;26.50;99.90;;;;;;5083918;28;20226;-87
2023/06/12 09:53:47;;;;;;;10.63;10.32;;;26.40;99.90;;;;;;5084215;28;20229;-87
2023/06/12 09:56:20;;;;;;;10.50;10.20;;;26.60;99.90;;;;;;5083975;28;20225;-88
2023/06/12 09:58:55;;;;;;;10.60;10.30;;;26.90;99.90;;;;;;5084066;28;20248;-87
2023/06/12 10:01:26;;;;;;;10.40;10.10;;;26.80;99.90;;;;;;5084113;28;20233;-88
2023/06/12 10:04:04;;;;;;;10.38;10.07;;;26.60;99.90;;;;;;5084093;28;20337;-88
2023/06/12 10:06:35;;;;;;;10.43;10.13;;;26.70;99.90;;;;;;5084402;28;20251;-88
2023/06/12 10:09:04;;;;;;;10.70;10.40;;;26.80;99.90;;;;;;5086536;28;20265;-88
2023/06/12 10:11:33;;;;;;;10.90;10.60;;;26.90;99.90;;;;;;5099205;28;20233;-86
2023/06/12 10:14:03;;;;;;;10.65;10.35;;;27.10;99.90;;;;;;5100685;28;20245;-87
2023/06/12 10:16:34;;;;;;;10.45;10.15;;;27.20;99.90;;;;;;5088655;28;20245;-88
2023/06/12 10:19:02;;;;;;;10.27;9.98;;;27.40;99.90;;;;;;5083866;28;20230;-87
2023/06/12 10:21:33;;;;;;;10.43;10.13;;;27.50;99.90;;;;;;5083497;28;20249;-87
2023/06/12 10:24:01;;;;;;;10.32;10.02;;;27.60;99.90;;;;;;5083680;28;20240;-88
2023/06/12 10:26:30;;;;;;;10.10;9.80;;;27.80;99.90;;;;;;5083182;28;20253;-88
2023/06/12 10:29:36;;;;;;;10.30;10.00;;;27.90;99.90;;;;;;5083604;28;20253;-88
2023/06/12 10:32:06;;;;;;;10.30;10.00;;;28.00;99.90;;;;;;5084247;28;20271;-88
2023/06/12 10:34:34;;;;;;;10.18;9.88;;;27.90;99.90;;;;;;5083177;28;20276;-88
2023/06/12 10:37:29;;;;;;;10.15;9.85;;;27.80;99.90;;;;;;5083529;28;20296;-88
2023/06/12 10:40:16;;;;;;;10.57;10.27;;;27.70;99.90;;;;;;5082807;28;20246;-88
2023/06/12 10:42:47;;;;;;;11.00;10.70;;;27.70;99.90;;;;;;5083723;28;20225;-88
2023/06/12 10:45:32;;;;;;;10.90;10.60;;;27.70;99.90;;;;;;5083136;28;20218;-88
2023/06/12 10:48:20;;;;;;;11.25;10.95;;;27.70;99.90;;;;;;5083319;28;20210;-87
2023/06/12 10:50:59;;;;;;;10.80;10.50;;;27.80;99.90;;;;;;5082918;28;20234;-88
2023/06/12 10:53:37;;;;;;;10.90;10.60;;;27.90;99.90;;;;;;5083890;28;20240;-88
2023/06/12 10:56:08;;;;;;;10.68;10.38;;;28.10;99.90;;;;;;5082770;28;20360;-87
2023/06/12 10:58:43;;;;;;;10.82;10.52;;;28.10;99.90;;;;;;5084595;28;20331;-88
2023/06/12 11:01:22;;;;;;;10.68;10.38;;;28.30;99.90;;;;;;5092099;28;20229;-87
2023/06/12 11:03:52;;;;;;;10.50;10.20;;;28.40;99.90;;;;;;5099643;28;20237;-87
2023/06/12 11:06:21;;;;;;;10.52;10.23;;;28.20;99.90;;;;;;5097997;28;20242;-88
2023/06/12 11:08:50;;;;;;;10.60;10.30;;;27.90;99.90;;;;;;5083669;28;20238;-88
2023/06/12 11:11:20;;;;;;;10.55;10.25;;;27.50;99.90;;;;;;5083030;28;20245;-88
2023/06/12 11:13:50;;;;;;;10.70;10.40;;;27.50;99.90;;;;;;5083678;28;20230;-88
2023/06/12 11:16:24;;;;;;;10.65;10.35;;;27.90;99.90;;;;;;5093844;28;20239;-86
2023/06/12 11:19:10;;;;;;;10.77;10.48;;;28.30;99.90;;;;;;5099908;28;20213;-86
2023/06/12 11:21:45;;;;;;;11.05;10.75;;;28.60;99.90;;;;;;5088705;28;20230;-88
2023/06/12 11:24:15;;;;;;;10.65;10.35;;;28.80;99.90;;;;;;5084824;28;20230;-87
2023/06/12 11:26:43;;;;;;;10.70;10.40;;;29.10;99.90;;;;;;5084600;28;20303;-88
2023/06/12 11:29:15;;;;;;;10.45;10.15;;;29.50;99.90;;;;;;5084722;28;20237;-87
2023/06/12 11:31:51;;;;;;;10.75;10.45;;;29.50;99.90;;;;;;5083313;28;20285;-87
2023/06/12 11:34:20;;;;;;;10.77;10.48;;;29.20;99.90;;;;;;5083848;28;20229;-88
2023/06/12 11:36:49;;;;;;;10.93;10.63;;;29.20;99.90;;;;;;5083466;28;20230;-88
2023/06/12 11:39:21;;;;;;;10.70;10.40;;;29.20;99.90;;;;;;5082430;28;20240;-88
2023/06/12 11:41:50;;;;;;;10.70;10.40;;;29.10;99.90;;;;;;5082399;28;20226;-88
2023/06/12 11:44:18;;;;;;;10.75;10.45;;;29.40;99.90;;;;;;5082539;28;20249;-88
2023/06/12 11:46:49;;;;;;;10.80;10.50;;;29.90;99.90;;;;;;5082658;28;20234;-89
2023/06/12 11:49:17;;;;;;;10.77;10.48;;;30.10;99.90;;;;;;5082031;28;20249;-89
2023/06/12 11:51:46;;;;;;;10.80;10.50;;;30.30;99.90;;;;;;5109281;22;20221;-87
2023/06/12 11:54:16;;;;;;;10.48;10.18;;;30.40;99.90;;;;;;5100494;28;20230;-87
2023/06/12 11:56:48;;;;;;;10.60;10.30;;;30.50;99.90;;;;;;5102517;28;20253;-87
2023/06/12 11:59:25;;;;;;;10.60;10.30;;;30.20;99.90;;;;;;5103904;28;20328;-87
2023/06/12 12:02:01;;;;;;;10.75;10.45;;;30.00;99.90;;;;;;5087448;28;20226;-87
2023/06/12 12:04:34;;;;;;;10.68;10.38;;;29.70;99.90;;;;;;5097525;28;20240;-84
2023/06/12 12:07:03;;;;;;;10.43;10.13;;;29.60;99.90;;;;;;5103131;28;20264;-84
2023/06/12 12:09:31;;;;;;;10.70;10.40;;;29.70;99.90;;;;;;5102298;28;20222;-84
2023/06/12 12:12:28;;;;;;;10.40;10.10;;;30.00;99.90;;;;;;5093449;28;20320;-87
2023/06/12 12:14:57;;;;;;;10.30;10.00;;;30.40;99.90;;;;;;5083349;28;20238;-86
2023/06/12 12:17:37;;;;;;;10.45;10.15;;;30.70;99.90;;;;;;5083327;28;20230;-86
2023/06/12 12:20:27;;;;;;;;;;;;;;;;;;;;;
2023/06/12 12:23:02;;;;;;;10.82;10.52;;;31.20;99.90;;;;;;5064399;28;20230;-86
2023/06/12 12:25:32;;;;;;;10.63;10.32;;;31.60;99.90;;;;;;5083229;28;20238;-85
2023/06/12 12:28:05;;;;;;;10.90;10.60;;;31.70;99.90;;;;;;5083161;28;20230;-86
2023/06/12 12:30:37;;;;;;;10.80;10.50;;;31.70;99.90;;;;;;5083588;28;20320;-87
2023/06/12 12:33:09;;;;;;;10.70;10.40;;;31.30;99.90;;;;;;5089360;28;20222;-86
2023/06/12 12:35:37;;;;;;;10.70;10.40;;;30.80;99.90;;;;;;5083836;28;20226;-87
2023/06/12 12:38:05;;;;;;;10.63;10.32;;;30.30;99.90;;;;;;5083951;28;20321;-86
2023/06/12 12:40:37;;;;;;;10.30;10.00;;;29.90;99.90;;;;;;5083258;28;20265;-85
2023/06/12 12:43:04;;;;;;;10.45;10.15;;;29.80;99.90;;;;;;5083043;28;20215;-85
2023/06/12 12:45:34;;;;;;;10.35;10.05;;;30.00;99.90;;;;;;5083166;28;20272;-85
2023/06/12 12:48:04;;;;;;;10.40;10.10;;;30.00;99.90;;;;;;5082668;28;20237;-85
2023/06/12 12:50:35;;;;;;;10.18;9.88;;;30.40;99.90;;;;;;5082162;28;20230;-85
2023/06/12 12:53:03;;;;;;;10.20;9.90;;;30.70;99.90;;;;;;5083388;28;20256;-85
2023/06/12 12:55:32;;;;;;;10.50;10.20;;;30.80;99.90;;;;;;5083031;28;20234;-85
2023/06/12 12:58:02;;;;;;;10.77;10.48;;;31.20;99.90;;;;;;5082510;28;20226;-85
2023/06/12 13:00:31;;;;;;;10.77;10.48;;;31.60;99.90;;;;;;5081708;28;20289;-84
2023/06/12 13:03:00;;;;;;;10.70;10.40;;;31.90;99.90;;;;;;5089050;28;20237;-84
2023/06/12 13:05:29;;;;;;;10.73;10.43;;;32.00;99.90;;;;;;5081943;28;20234;-83
2023/06/12 13:08:01;;;;;;;10.60;10.30;;;31.80;99.90;;;;;;5082409;28;20234;-84
2023/06/12 13:10:29;;;;;;;10.80;10.50;;;31.70;99.90;;;;;;5081906;28;20253;-85
2023/06/12 13:12:59;;;;;;;10.80;10.50;;;31.90;99.90;;;;;;5090102;28;20222;-84
2023/06/12 13:15:27;;;;;;;10.70;10.40;;;31.70;99.90;;;;;;5095950;28;20225;-84
2023/06/12 13:17:57;;;;;;;10.80;10.50;;;31.80;99.90;;;;;;5095213;28;20237;-84
2023/06/12 13:20:27;;;;;;;10.60;10.30;;;31.80;99.90;;;;;;5098170;28;20233;-83
2023/06/12 13:22:55;;;;;;;10.35;10.05;;;31.40;99.90;;;;;;5088810;28;20238;-84
2023/06/12 13:25:35;;;;;;;10.90;10.60;;;31.00;99.90;;;;;;5082563;28;20325;-85
2023/06/12 13:28:03;;;;;;;10.65;10.35;;;30.60;99.40;;;;;;5082573;28;20234;-85
2023/06/12 13:30:32;;;;;;;10.50;10.20;;;30.40;99.90;;;;;;5082937;28;20230;-82
2023/06/12 13:33:03;;;;;;;10.30;10.00;;;30.40;99.90;;;;;;5083639;28;20232;-86
2023/06/12 13:35:33;;;;;;;10.00;9.70;;;30.20;99.90;;;;;;5082831;28;20230;-85
2023/06/12 13:38:01;;;;;;;9.90;9.60;;;30.20;99.90;;;;;;5082002;28;20228;-85
2023/06/12 13:40:41;;;;;;;10.18;9.88;;;30.20;99.90;;;;;;5081467;28;20285;-86
2023/06/12 13:43:09;;;;;;;10.02;9.73;;;30.40;99.90;;;;;;5081942;28;20236;-85
2023/06/12 13:45:37;;;;;;;10.30;10.00;;;30.40;99.90;;;;;;5082008;28;20238;-86
2023/06/12 13:48:07;;;;;;;10.40;10.10;;;30.40;99.90;;;;;;5082129;28;20288;-85
2023/06/12 13:50:36;;;;;;;10.50;10.20;;;30.40;99.90;;;;;;5081471;28;20242;-85
2023/06/12 13:53:06;;;;;;;10.30;10.00;;;30.40;99.90;;;;;;5082328;28;20214;-85
2023/06/12 13:55:46;;;;;;;10.48;10.18;;;30.60;99.90;;;;;;5081879;28;20225;-86
2023/06/12 13:58:14;;;;;;;10.38;10.07;;;30.90;99.90;;;;;;5082464;28;20266;-85
2023/06/12 14:00:43;;;;;;;10.57;10.27;;;31.20;99.90;;;;;;5081405;28;20292;-85
2023/06/12 14:03:12;;;;;;;10.40;10.10;;;31.80;99.90;;;;;;5083009;28;20284;-86
2023/06/12 14:05:42;;;;;;;10.70;10.40;;;32.20;99.90;;;;;;5084641;28;20230;-85
2023/06/12 14:08:11;;;;;;;10.60;10.30;;;32.40;99.40;;;;;;5082621;28;20245;-85
2023/06/12 14:10:51;;;;;;;10.73;10.43;;;32.30;99.90;;;;;;5087733;28;20226;-85
2023/06/12 14:13:19;;;;;;;10.60;10.30;;;31.70;99.80;;;;;;5088309;28;20245;-86
2023/06/12 14:15:50;;;;;;;10.20;9.90;;;30.80;99.90;;;;;;5089368;28;20249;-85
2023/06/12 14:18:20;;;;;;;10.07;9.77;;;30.30;99.90;;;;;;5097462;28;20225;-85
2023/06/12 14:20:49;;;;;;;10.45;10.15;;;30.00;99.90;;;;;;5100078;28;20219;-84
2023/06/12 14:23:20;;;;;;;10.27;9.98;;;29.90;99.90;;;;;;5094833;28;20226;-87
2023/06/12 14:25:58;;;;;;;10.05;9.75;;;29.80;99.90;;;;;;5083967;28;20250;-85
2023/06/12 14:28:26;;;;;;;10.20;9.90;;;30.10;99.90;;;;;;5080987;28;20249;-86
2023/06/12 14:30:58;;;;;;;10.38;10.07;;;30.40;99.90;;;;;;5081505;28;20238;-85
2023/06/12 14:33:26;;;;;;;10.50;10.20;;;30.80;99.90;;;;;;5081190;28;20230;-86
2023/06/12 14:35:55;;;;;;;10.40;10.10;;;30.80;99.40;;;;;;5081117;28;20226;-85
2023/06/12 14:38:24;;;;;;;10.60;10.30;;;30.80;99.90;;;;;;5081364;28;20241;-85
2023/06/12 14:41:04;;;;;;;10.60;10.30;;;31.10;99.80;;;;;;5082158;28;20254;-86